Time;durP1;ratioP1;P1;durP2;ratioP2;P2;SDS_P1;SDS_P2;PMS_P1;PMS_P2;Temp;Humidity;BMP_temperature;BMP_pressure;BME280_temperature;BME280_humidity;BME280_pressure;Samples;Min_cycle;Max_cycle;Signal;HPM_P1;HPM_P2
2022/07/02 00:02:25;;;;;;;13.15;2.55;;;;;;;17.49;49.98;102080.97;5181646;28;20447;-36
2022/07/02 00:05:02;;;;;;;9.07;2.35;;;;;;;17.72;50.14;102111.41;5193237;28;20421;-38
2022/07/02 00:07:36;;;;;;;7.57;2.45;;;;;;;17.18;50.28;102022.00;5184721;28;20925;-37
2022/07/02 00:10:11;;;;;;;11.02;2.65;;;;;;;17.75;50.18;102110.22;5191339;28;20508;-37
2022/07/02 00:12:44;;;;;;;12.75;2.80;;;;;;;17.68;50.35;102098.50;5167666;28;20486;-37
2022/07/02 00:15:18;;;;;;;8.25;2.35;;;;;;;17.64;50.47;102102.53;5134549;28;20801;-36
2022/07/02 00:17:51;;;;;;;10.43;2.60;;;;;;;17.77;50.61;102118.06;5143445;28;21011;-37
2022/07/02 00:20:24;;;;;;;10.68;2.78;;;;;;;17.73;50.71;102112.22;5180867;28;20486;-37
2022/07/02 00:22:57;;;;;;;10.57;2.40;;;;;;;17.70;50.77;102110.72;5192691;28;20429;-39
2022/07/02 00:25:39;;;;;;;8.40;2.83;;;;;;;17.44;51.15;102097.50;5192747;28;20460;-37
2022/07/02 00:28:16;;;;;;;9.90;2.17;;;;;;;17.65;50.93;102109.53;5186319;28;20413;-37
2022/07/02 00:30:49;;;;;;;8.05;2.42;;;;;;;17.67;51.20;102112.88;5187188;28;20442;-37
2022/07/02 00:33:24;;;;;;;12.05;2.85;;;;;;;17.66;51.22;102113.91;5193909;28;20425;-37
2022/07/02 00:35:58;;;;;;;16.27;2.77;;;;;;;17.66;51.31;102116.56;5194538;28;20433;-36
2022/07/02 00:38:31;;;;;;;11.63;3.03;;;;;;;17.58;51.52;102097.84;5182834;28;20459;-36
2022/07/02 00:41:06;;;;;;;13.30;2.63;;;;;;;17.65;51.55;102106.84;5196393;28;20471;-36
2022/07/02 00:43:39;;;;;;;12.93;3.40;;;;;;;17.54;51.75;102101.84;5173263;28;20444;-38
2022/07/02 00:46:14;;;;;;;13.40;3.30;;;;;;;17.55;51.95;102108.84;5182851;28;21868;-37
2022/07/02 00:48:46;;;;;;;16.30;3.50;;;;;;;17.55;52.04;102119.53;5199026;28;20417;-38
2022/07/02 00:51:19;;;;;;;11.82;3.30;;;;;;;17.35;52.17;102082.47;5198660;28;20766;-37
2022/07/02 00:53:52;;;;;;;13.00;3.28;;;;;;;17.44;52.25;102091.34;5201940;28;20776;-36
2022/07/02 00:56:27;;;;;;;10.80;2.95;;;;;;;17.49;52.35;102105.84;5200547;28;22064;-36
2022/07/02 00:59:02;;;;;;;12.35;3.20;;;;;;;17.29;52.44;102077.78;5197256;28;20512;-37
2022/07/02 01:01:37;;;;;;;12.57;3.20;;;;;;;17.50;52.49;102118.22;5187276;28;20437;-36
2022/07/02 01:04:16;;;;;;;16.90;3.65;;;;;;;17.39;52.60;102089.13;5183481;28;20580;-36
2022/07/02 01:06:51;;;;;;;12.13;2.75;;;;;;;17.48;52.80;102104.19;5187724;28;20409;-37
2022/07/02 01:12:17;;;;;;;8.23;2.78;;;;;;;17.37;53.00;102095.63;5201266;28;20752;-36
2022/07/02 01:14:50;;;;;;;12.27;3.08;;;;;;;17.39;53.10;102098.97;5183583;28;20444;-35
2022/07/02 01:17:23;;;;;;;14.10;3.47;;;;;;;17.13;52.92;102048.38;5199993;28;21117;-37
2022/07/02 01:19:56;;;;;;;13.10;3.50;;;;;;;17.43;53.07;102090.47;5199251;28;20390;-37
2022/07/02 01:22:36;;;;;;;14.80;3.67;;;;;;;17.43;53.01;102092.31;5157662;28;20413;-36
2022/07/02 01:25:10;;;;;;;13.77;3.42;;;;;;;17.42;53.17;102094.16;5194174;28;20414;-36
2022/07/02 01:27:42;;;;;;;11.57;3.38;;;;;;;17.20;53.28;102062.75;5200450;28;20505;-36
2022/07/02 01:30:15;;;;;;;17.00;3.60;;;;;;;17.36;53.51;102092.13;5186125;28;20434;-37
2022/07/02 01:32:48;;;;;;;8.80;3.20;;;;;;;17.32;53.92;102088.13;5177782;28;20402;-36
2022/07/02 01:35:21;;;;;;;16.27;3.00;;;;;;;17.26;53.71;102092.28;5193969;28;20942;-36
2022/07/02 01:37:55;;;;;;;11.00;2.73;;;;;;;17.23;53.67;102089.09;5200585;28;20498;-36
2022/07/02 01:40:28;;;;;;;9.50;2.47;;;;;;;17.22;53.77;102103.47;5196754;28;20432;-37
2022/07/02 01:43:01;;;;;;;10.32;2.40;;;;;;;17.19;53.66;102103.78;5200758;28;20413;-37
2022/07/02 01:45:34;;;;;;;8.05;2.95;;;;;;;17.14;53.68;102100.75;5201453;28;20410;-37
2022/07/02 01:48:07;;;;;;;8.23;2.33;;;;;;;17.17;53.57;102116.44;5193397;28;20413;-37
2022/07/02 01:50:42;;;;;;;7.27;2.50;;;;;;;17.03;53.70;102100.06;5198129;28;20519;-37
2022/07/02 01:53:17;;;;;;;8.82;2.45;;;;;;;16.89;53.64;102070.50;5195457;28;20441;-36
2022/07/02 01:55:49;;;;;;;11.93;3.00;;;;;;;17.09;53.46;102105.75;5196020;28;20425;-37
2022/07/02 01:58:22;;;;;;;8.45;2.38;;;;;;;17.13;53.61;102107.09;5200504;28;20429;-35
2022/07/02 02:00:56;;;;;;;9.17;2.93;;;;;;;17.06;53.63;102096.22;5201808;28;23353;-36
2022/07/02 02:03:28;;;;;;;10.52;3.03;;;;;;;17.05;53.70;102095.38;5202375;28;20412;-37
2022/07/02 02:06:01;;;;;;;9.40;2.47;;;;;;;17.00;53.73;102084.38;5199034;28;20409;-36
2022/07/02 02:08:35;;;;;;;15.00;2.83;;;;;;;17.08;53.73;102090.72;5201125;28;20409;-36
2022/07/02 02:11:08;;;;;;;7.80;2.13;;;;;;;17.08;53.94;102107.56;5197571;28;20425;-36
2022/07/02 02:13:41;;;;;;;7.28;1.85;;;;;;;17.08;53.65;102096.06;5198402;28;20998;-36
2022/07/02 02:16:14;;;;;;;8.90;2.38;;;;;;;16.92;53.62;102070.16;5199592;28;20588;-37
2022/07/02 02:18:48;;;;;;;9.70;2.20;;;;;;;17.04;53.69;102091.06;5202072;28;20425;-36
2022/07/02 02:21:21;;;;;;;10.68;2.40;;;;;;;17.01;53.67;102083.38;5197535;28;20742;-36
2022/07/02 02:23:58;;;;;;;8.75;1.90;;;;;;;16.97;53.75;102094.50;5196722;28;20464;-38
2022/07/02 02:26:31;;;;;;;8.68;2.55;;;;;;;16.93;53.74;102086.00;5199972;28;20459;-36
2022/07/02 02:29:04;;;;;;;7.50;1.85;;;;;;;16.93;53.92;102091.34;5200872;28;20409;-37
2022/07/02 02:31:36;;;;;;;6.47;1.98;;;;;;;16.92;54.02;102080.84;5190939;28;20747;-36
2022/07/02 02:34:09;;;;;;;6.57;2.10;;;;;;;16.87;53.77;102078.63;5198319;28;20421;-36
2022/07/02 02:36:42;;;;;;;8.57;1.80;;;;;;;16.93;53.75;102101.19;5196393;28;20453;-36
2022/07/02 02:39:16;;;;;;;7.17;2.43;;;;;;;16.82;53.77;102095.16;5190326;28;20420;-38
2022/07/02 02:41:49;;;;;;;10.55;2.35;;;;;;;16.47;53.82;102040.09;5199626;28;20507;-36
2022/07/02 02:44:22;;;;;;;3.83;1.55;;;;;;;16.82;53.81;102091.66;5196189;28;20420;-37
2022/07/02 02:46:55;;;;;;;5.22;1.60;;;;;;;16.75;53.73;102087.88;5199113;28;23327;-36
2022/07/02 02:49:28;;;;;;;7.38;2.03;;;;;;;16.73;53.93;102092.56;5188538;28;20955;-36
2022/07/02 02:52:01;;;;;;;6.70;2.20;;;;;;;16.76;53.95;102098.44;5197738;28;20508;-36
2022/07/02 02:54:36;;;;;;;6.57;1.98;;;;;;;16.77;53.90;102099.28;5197954;28;20436;-36
2022/07/02 02:57:08;;;;;;;8.88;2.20;;;;;;;16.66;53.91;102091.50;5196000;28;20670;-37
2022/07/02 02:59:41;;;;;;;7.60;1.90;;;;;;;16.72;53.98;102106.88;5196820;28;20425;-37
2022/07/02 03:02:14;;;;;;;5.73;1.90;;;;;;;16.67;54.02;102104.72;5185414;28;20418;-39
2022/07/02 03:04:47;;;;;;;7.32;2.10;;;;;;;16.28;54.15;102046.47;5183406;28;20428;-36
2022/07/02 03:07:20;;;;;;;9.57;2.40;;;;;;;16.49;54.04;102077.28;5198530;28;20510;-36
2022/07/02 03:09:54;;;;;;;8.07;2.45;;;;;;;16.15;54.04;102024.75;5198653;28;20417;-36
2022/07/02 03:12:27;;;;;;;9.45;2.33;;;;;;;16.64;54.06;102104.19;5196243;28;20421;-36
2022/07/02 03:15:00;;;;;;;5.35;1.50;;;;;;;16.68;53.96;102105.53;5201250;28;20410;-37
2022/07/02 03:17:33;;;;;;;7.50;2.20;;;;;;;16.64;53.71;102114.88;5198655;28;20413;-37
2022/07/02 03:20:07;;;;;;;6.40;1.83;;;;;;;16.57;54.13;102101.31;5195458;28;20482;-37
2022/07/02 03:22:40;;;;;;;6.77;2.07;;;;;;;16.46;54.17;102093.59;5197112;28;20428;-36
2022/07/02 03:25:14;;;;;;;9.30;1.85;;;;;;;16.37;54.14;102088.19;5195546;28;20455;-38
2022/07/02 03:27:47;;;;;;;4.40;1.65;;;;;;;16.56;54.05;102124.47;5196706;28;20424;-36
2022/07/02 03:30:20;;;;;;;5.70;2.20;;;;;;;15.95;53.95;102050.78;5192369;28;20798;-37
2022/07/02 03:32:53;;;;;;;5.85;1.75;;;;;;;16.48;54.11;102111.09;5194614;28;20429;-38
2022/07/02 03:35:26;;;;;;;6.63;1.70;;;;;;;16.55;54.05;102117.47;5195072;28;21356;-37
2022/07/02 03:37:59;;;;;;;6.57;1.48;;;;;;;16.53;54.09;102119.44;5183509;28;20401;-37
2022/07/02 03:40:33;;;;;;;9.07;2.00;;;;;;;16.47;54.25;102109.41;5193231;28;20512;-36
2022/07/02 03:43:06;;;;;;;6.13;1.65;;;;;;;16.50;54.23;102125.09;5184234;28;20405;-36
2022/07/02 03:45:39;;;;;;;7.72;2.85;;;;;;;16.49;54.19;102123.44;5199505;28;20427;-37
2022/07/02 03:48:12;;;;;;;6.27;1.97;;;;;;;16.49;54.32;102123.44;5199129;28;20491;-37
2022/07/02 03:50:45;;;;;;;10.25;2.42;;;;;;;16.49;54.31;102126.09;5201240;28;20842;-37
2022/07/02 03:53:17;;;;;;;9.40;2.63;;;;;;;16.50;54.23;102124.25;5190026;28;20805;-36
2022/07/02 03:55:52;;;;;;;7.30;2.33;;;;;;;16.52;54.33;102120.44;5199144;28;20525;-37
2022/07/02 03:58:24;;;;;;;9.85;2.50;;;;;;;16.44;54.35;102098.22;5200339;28;20917;-36
2022/07/02 04:00:57;;;;;;;9.88;2.30;;;;;;;16.53;54.41;102113.28;5189716;28;20414;-37
2022/07/02 04:03:30;;;;;;;6.82;2.15;;;;;;;16.52;54.43;102117.78;5201824;28;20409;-36
2022/07/02 04:06:03;;;;;;;4.45;1.85;;;;;;;16.52;54.34;102124.97;5203680;28;20405;-39
2022/07/02 04:08:37;;;;;;;6.43;2.38;;;;;;;16.53;54.44;102129.28;5195946;28;20801;-37
2022/07/02 04:11:11;;;;;;;7.80;2.60;;;;;;;16.53;54.44;102130.13;5196955;28;20480;-38
2022/07/02 04:13:43;;;;;;;9.43;2.45;;;;;;;16.54;54.44;102125.66;5199084;28;20421;-36
2022/07/02 04:16:16;;;;;;;9.30;2.25;;;;;;;16.58;54.50;102133.16;5194898;28;20444;-36
2022/07/02 04:18:49;;;;;;;9.25;2.30;;;;;;;16.61;54.51;102137.34;5201459;28;20470;-35
2022/07/02 04:21:22;;;;;;;7.70;2.25;;;;;;;16.64;54.42;102137.03;5197788;28;20430;-37
2022/07/02 04:23:55;;;;;;;6.47;1.90;;;;;;;16.64;54.62;102130.88;5201721;28;20519;-38
2022/07/02 04:26:32;;;;;;;6.75;2.28;;;;;;;16.63;54.78;102121.16;5203554;28;20437;-36
2022/07/02 04:29:05;;;;;;;9.13;2.07;;;;;;;16.61;54.61;102121.34;5199539;28;20508;-40
2022/07/02 04:31:37;;;;;;;6.22;2.13;;;;;;;16.70;54.69;102124.91;5190887;28;20445;-36
2022/07/02 04:34:10;;;;;;;12.35;2.45;;;;;;;16.72;54.71;102126.41;5200906;28;20738;-36
2022/07/02 04:36:43;;;;;;;4.60;2.25;;;;;;;16.57;54.75;102106.66;5197218;28;20499;-37
2022/07/02 04:39:15;;;;;;;9.05;2.40;;;;;;;16.78;54.81;102133.78;5204903;28;20417;-37
2022/07/02 04:41:50;;;;;;;7.40;2.63;;;;;;;16.82;54.57;102129.00;5197063;28;21089;-37
2022/07/02 04:44:23;;;;;;;9.00;2.33;;;;;;;16.67;54.85;102106.53;5197199;28;20575;-37
2022/07/02 04:46:56;;;;;;;8.50;2.65;;;;;;;16.80;54.85;102131.81;5200821;28;20572;-39
2022/07/02 04:49:32;;;;;;;7.07;2.53;;;;;;;16.85;55.00;102143.81;5199185;28;20787;-37
2022/07/02 04:52:06;;;;;;;7.95;1.80;;;;;;;16.70;54.82;102119.56;5201448;28;20425;-37
2022/07/02 04:54:39;;;;;;;11.18;2.53;;;;;;;16.94;54.99;102143.72;5196570;28;20547;-37
2022/07/02 04:57:13;;;;;;;9.05;2.08;;;;;;;16.97;54.87;102138.06;5203020;28;20405;-37
2022/07/02 04:59:46;;;;;;;10.82;2.65;;;;;;;16.99;54.97;102130.72;5202635;28;20508;-40
2022/07/02 05:02:19;;;;;;;12.48;2.72;;;;;;;17.00;54.92;102135.09;5198497;28;20437;-38
2022/07/02 05:04:52;;;;;;;4.47;2.15;;;;;;;16.69;54.91;102088.53;5193890;28;20512;-36
2022/07/02 05:07:25;;;;;;;6.88;2.20;;;;;;;17.04;54.98;102139.09;5200929;28;20539;-36
2022/07/02 05:09:58;;;;;;;11.38;2.78;;;;;;;17.22;54.75;102136.34;5192016;28;20465;-37
2022/07/02 05:12:32;;;;;;;12.65;2.45;;;;;;;18.42;53.76;102134.09;5199770;28;20409;-38
2022/07/02 05:15:06;;;;;;;6.77;2.40;;;;;;;20.00;51.90;102134.88;5195923;28;20424;-37
2022/07/02 05:17:39;;;;;;;9.32;1.63;;;;;;;21.62;50.16;102122.47;5198149;28;20462;-37
2022/07/02 05:20:12;;;;;;;9.82;1.95;;;;;;;23.13;48.79;102128.28;5193365;28;20809;-37
2022/07/02 05:22:45;;;;;;;8.20;1.85;;;;;;;24.23;47.28;102097.34;5190122;28;20451;-38
2022/07/02 05:25:18;;;;;;;7.40;1.40;;;;;;;25.46;45.78;102102.72;5200831;28;20534;-38
2022/07/02 05:27:52;;;;;;;8.07;1.42;;;;;;;26.32;44.80;102122.00;5204778;28;20421;-43
2022/07/02 05:30:25;;;;;;;3.73;1.13;;;;;;;27.34;43.38;102114.97;5202091;28;20656;-36
2022/07/02 05:32:58;;;;;;;10.38;1.60;;;;;;;27.81;42.78;102108.88;5198239;28;20417;-41
2022/07/02 05:35:31;;;;;;;6.43;1.37;;;;;;;28.60;41.48;102111.25;5191321;28;20487;-41
2022/07/02 05:38:04;;;;;;;6.68;1.58;;;;;;;29.29;40.71;102133.03;5202728;28;20488;-36
2022/07/02 05:40:37;;;;;;;5.82;1.50;;;;;;;29.85;39.73;102126.66;5198331;28;20858;-38
2022/07/02 05:43:11;;;;;;;5.38;1.50;;;;;;;30.32;38.82;102129.06;5202593;28;20409;-37
2022/07/02 05:45:44;;;;;;;4.22;1.38;;;;;;;30.85;38.21;102125.94;5201953;28;20953;-37
2022/07/02 05:48:17;;;;;;;5.55;1.90;;;;;;;31.11;37.68;102146.16;5197631;28;20852;-39
2022/07/02 05:50:50;;;;;;;5.00;1.27;;;;;;;31.00;37.37;102143.31;5199302;28;20441;-38
2022/07/02 05:53:25;;;;;;;6.13;1.30;;;;;;;31.16;37.09;102144.31;5203276;28;20423;-37
2022/07/02 05:55:58;;;;;;;4.55;1.42;;;;;;;31.41;36.66;102153.88;5199837;28;20499;-39
2022/07/02 05:58:32;;;;;;;6.72;1.73;;;;;;;31.66;36.29;102142.34;5199913;28;20421;-37
2022/07/02 06:01:05;;;;;;;4.13;1.48;;;;;;;32.23;35.35;102143.59;5201098;28;20912;-37
2022/07/02 06:03:37;;;;;;;7.78;1.90;;;;;;;32.98;34.69;102142.34;5198356;28;20481;-38
2022/07/02 06:09:00;;;;;;;5.32;1.55;;;;;;;33.84;33.13;102143.56;5190166;28;20832;-38
2022/07/02 06:11:33;;;;;;;6.30;1.83;;;;;;;33.84;33.03;102131.81;5201018;28;20427;-40
2022/07/02 06:14:08;;;;;;;4.93;1.30;;;;;;;33.77;32.95;102148.53;5200217;28;20963;-38
2022/07/02 06:16:41;;;;;;;4.70;1.27;;;;;;;33.89;32.68;102140.84;5192354;28;20461;-38
2022/07/02 06:19:14;;;;;;;7.07;2.20;;;;;;;33.83;32.68;102141.94;5200345;28;20501;-38
2022/07/02 06:21:46;;;;;;;6.40;1.40;;;;;;;33.08;32.87;102080.53;5201134;28;20427;-37
2022/07/02 06:24:19;;;;;;;5.65;1.58;;;;;;;33.81;32.28;102146.88;5202668;28;20425;-39
2022/07/02 06:26:52;;;;;;;6.60;1.42;;;;;;;34.38;31.82;102140.22;5200076;28;20936;-41
2022/07/02 06:29:26;;;;;;;4.57;1.55;;;;;;;34.55;31.29;102148.13;5198507;28;20431;-39
2022/07/02 06:31:59;;;;;;;5.63;1.63;;;;;;;34.53;31.51;102139.38;5198810;28;20897;-39
2022/07/02 06:34:32;;;;;;;6.18;1.50;;;;;;;34.52;31.13;102142.38;5200529;28;20945;-39
2022/07/02 06:37:05;;;;;;;7.68;1.38;;;;;;;34.72;31.30;102153.31;5199686;28;20421;-39
2022/07/02 06:39:38;;;;;;;6.13;1.70;;;;;;;35.22;30.48;102156.91;5198730;28;20416;-39
2022/07/02 06:42:20;;;;;;;5.75;1.83;;;;;;;35.45;30.47;102165.53;5202528;28;20433;-38
2022/07/02 06:44:56;;;;;;;5.95;1.52;;;;;;;36.00;29.49;102166.19;5199786;28;20927;-41
2022/07/02 06:47:30;;;;;;;7.03;1.75;;;;;;;36.43;29.17;102177.31;5200744;28;20742;-39
2022/07/02 06:50:03;;;;;;;5.45;1.45;;;;;;;36.42;29.36;102172.91;5200635;28;20475;-39
2022/07/02 06:52:36;;;;;;;6.50;1.85;;;;;;;36.38;29.30;102180.13;5203278;28;20773;-39
2022/07/02 06:55:09;;;;;;;6.53;1.58;;;;;;;36.34;29.34;102190.06;5195493;28;20415;-39
2022/07/02 06:57:42;;;;;;;6.85;1.58;;;;;;;36.53;28.90;102179.16;5198711;28;20437;-37
2022/07/02 07:00:21;;;;;;;4.63;1.40;;;;;;;36.70;28.71;102199.59;5199822;28;20886;-38
2022/07/02 07:02:54;;;;;;;5.10;1.15;;;;;;;36.34;28.83;102192.81;5207197;28;20406;-39
2022/07/02 07:05:26;;;;;;;4.38;1.45;;;;;;;36.48;28.59;102196.50;5204537;28;21037;-39
2022/07/02 07:07:59;;;;;;;6.53;1.40;;;;;;;36.52;28.60;102194.84;5203223;28;20410;-38
2022/07/02 07:10:32;;;;;;;7.53;1.80;;;;;;;36.73;28.56;102198.16;5202221;28;20425;-40
2022/07/02 07:13:08;;;;;;;7.68;1.65;;;;;;;36.85;28.45;102197.72;5202048;28;20453;-38
2022/07/02 07:15:42;;;;;;;7.05;1.67;;;;;;;36.83;28.36;102191.72;5189517;28;20896;-39
2022/07/02 07:18:15;;;;;;;4.20;1.13;;;;;;;36.82;28.37;102192.81;5200675;28;20549;-40
2022/07/02 07:20:49;;;;;;;7.57;1.65;;;;;;;36.88;28.29;102188.88;5203430;28;20425;-38
2022/07/02 07:23:22;;;;;;;7.17;1.53;;;;;;;36.99;27.85;102192.38;5194724;28;20820;-41
2022/07/02 07:25:55;;;;;;;6.05;1.52;;;;;;;36.92;28.15;102189.94;5202751;28;20418;-38
2022/07/02 07:28:28;;;;;;;4.55;1.17;;;;;;;36.87;28.01;102199.09;5203576;28;20451;-39
2022/07/02 07:31:02;;;;;;;6.57;1.20;;;;;;;36.84;28.03;102194.16;5204098;28;20770;-38
2022/07/02 07:33:35;;;;;;;3.90;1.00;;;;;;;36.78;28.18;102189.03;5201616;28;20428;-38
2022/07/02 07:36:08;;;;;;;4.70;1.27;;;;;;;36.53;28.26;102157.94;5196014;28;20420;-38
2022/07/02 07:38:40;;;;;;;4.30;1.20;;;;;;;36.65;28.18;102190.56;5189063;28;20405;-38
2022/07/02 07:41:14;;;;;;;6.60;1.50;;;;;;;36.77;27.90;102195.66;5197366;28;20483;-39
2022/07/02 07:43:47;;;;;;;7.65;1.60;;;;;;;36.74;28.00;102190.75;5200467;28;20590;-38
2022/07/02 07:46:21;;;;;;;6.20;1.20;;;;;;;36.18;28.42;102190.22;5195751;28;20429;-40
2022/07/02 07:48:54;;;;;;;3.78;1.13;;;;;;;35.56;28.89;102183.59;5205443;28;20414;-39
2022/07/02 07:51:30;;;;;;;11.80;1.90;;;;;;;35.12;29.30;102178.91;5202188;28;20471;-38
2022/07/02 07:54:03;;;;;;;6.53;1.27;;;;;;;35.09;29.11;102173.97;5207747;28;20409;-38
2022/07/02 07:56:35;;;;;;;3.78;1.20;;;;;;;34.99;29.39;102168.53;5192816;28;20458;-37
2022/07/02 07:59:09;;;;;;;3.60;1.20;;;;;;;34.89;29.05;102181.19;5193985;28;20899;-43
2022/07/02 08:01:43;;;;;;;3.50;1.10;;;;;;;34.73;29.04;102165.91;5204634;28;20417;-37
2022/07/02 08:04:16;;;;;;;6.93;1.15;;;;;;;34.48;29.14;102168.72;5203903;28;20453;-38
2022/07/02 08:06:49;;;;;;;3.60;0.98;;;;;;;34.20;29.29;102179.22;5206720;28;20971;-38
2022/07/02 08:09:22;;;;;;;3.67;1.08;;;;;;;33.84;29.54;102170.16;5203174;28;20520;-39
2022/07/02 08:11:54;;;;;;;3.72;1.00;;;;;;;33.69;29.60;102170.97;5206412;28;20496;-39
2022/07/02 08:14:27;;;;;;;5.40;0.85;;;;;;;33.50;29.52;102149.59;5194305;28;20442;-37
2022/07/02 08:17:01;;;;;;;4.60;1.20;;;;;;;33.45;29.35;102157.00;5178614;28;20894;-37
2022/07/02 08:19:37;;;;;;;4.18;1.10;;;;;;;33.24;29.49;102173.38;5210227;28;20416;-38
2022/07/02 08:22:10;;;;;;;3.50;1.00;;;;;;;32.98;29.93;102175.19;5203071;28;20529;-38
2022/07/02 08:24:43;;;;;;;3.15;0.93;;;;;;;32.78;29.92;102169.63;5207613;28;20421;-36
2022/07/02 08:27:15;;;;;;;3.88;0.93;;;;;;;32.83;29.59;102177.88;5207454;28;20447;-38
2022/07/02 08:29:48;;;;;;;5.40;1.10;;;;;;;32.55;29.55;102160.78;5193030;28;20417;-37
2022/07/02 08:32:23;;;;;;;2.63;0.70;;;;;;;32.38;29.94;102171.03;5204531;28;20421;-44
2022/07/02 08:34:57;;;;;;;3.13;0.95;;;;;;;32.16;29.83;102162.97;5188988;28;20421;-40
2022/07/02 08:37:29;;;;;;;3.00;0.75;;;;;;;31.97;30.01;102170.78;5204910;28;20397;-38
2022/07/02 08:40:02;;;;;;;3.60;0.70;;;;;;;31.68;30.09;102168.31;5205831;28;20471;-39
2022/07/02 08:42:37;;;;;;;2.53;0.90;;;;;;;31.51;30.05;102161.34;5207539;28;20492;-38
2022/07/02 08:45:12;;;;;;;4.05;0.60;;;;;;;31.51;29.98;102170.34;5189823;28;20410;-37
2022/07/02 08:47:47;;;;;;;3.33;0.90;;;;;;;31.52;29.87;102173.88;5185043;28;20973;-38
2022/07/02 08:50:21;;;;;;;3.67;0.80;;;;;;;31.58;29.83;102161.94;5199127;28;20421;-38
2022/07/02 08:52:54;;;;;;;3.30;0.80;;;;;;;31.61;29.57;102173.16;5201870;28;20962;-40
2022/07/02 08:55:27;;;;;;;2.55;0.80;;;;;;;31.43;29.81;102176.25;5190380;28;20414;-38
2022/07/02 08:58:01;;;;;;;4.07;0.90;;;;;;;31.47;29.40;102163.75;5191989;28;20985;-39
2022/07/02 09:00:34;;;;;;;2.05;0.60;;;;;;;31.34;29.45;102156.81;5203271;28;21049;-38
2022/07/02 09:03:11;;;;;;;3.05;0.82;;;;;;;31.15;29.44;102153.56;5196900;28;20420;-39
2022/07/02 09:05:44;;;;;;;1.70;0.40;;;;;;;30.94;29.76;102157.13;5174238;28;20887;-38
2022/07/02 09:08:18;;;;;;;4.32;0.80;;;;;;;30.46;30.29;102155.94;5188871;28;20774;-39
2022/07/02 09:10:55;;;;;;;4.20;0.90;;;;;;;30.13;29.87;102096.84;5192868;28;20948;-38
2022/07/02 09:13:29;;;;;;;3.88;0.90;;;;;;;30.53;29.68;102145.69;5178181;28;20427;-38
2022/07/02 09:16:01;;;;;;;4.63;1.10;;;;;;;30.76;29.40;102152.81;5198063;28;20422;-37
2022/07/02 09:18:36;;;;;;;4.63;0.70;;;;;;;30.89;29.09;102154.34;5202507;28;20460;-37
2022/07/02 09:21:08;;;;;;;2.25;0.68;;;;;;;30.81;29.25;102152.06;5195616;28;20582;-38
2022/07/02 09:23:47;;;;;;;4.07;0.70;;;;;;;30.42;29.29;102127.56;5201202;28;20492;-38
2022/07/02 09:26:21;;;;;;;1.70;0.70;;;;;;;30.21;29.50;102150.97;5201929;28;20425;-38
2022/07/02 09:29:00;;;;;;;3.00;1.00;;;;;;;29.95;29.57;102149.69;5206582;28;20923;-38
2022/07/02 09:31:33;;;;;;;1.88;0.70;;;;;;;29.74;29.48;102105.81;5202777;28;20797;-39
2022/07/02 09:34:08;;;;;;;2.50;0.80;;;;;;;29.90;29.39;102108.78;5204071;28;20463;-39
2022/07/02 09:36:40;;;;;;;4.17;1.10;;;;;;;30.09;29.34;102140.13;5198668;28;20722;-38
2022/07/02 09:39:13;;;;;;;6.90;1.08;;;;;;;30.15;29.26;102122.78;5201259;28;20425;-36
2022/07/02 09:41:46;;;;;;;1.38;0.55;;;;;;;30.36;28.88;102134.00;5201709;28;20420;-37
2022/07/02 09:44:19;;;;;;;2.35;0.60;;;;;;;30.26;29.06;102132.78;5201200;28;20492;-39
2022/07/02 09:46:52;;;;;;;3.03;0.70;;;;;;;29.69;29.12;102059.44;5202801;28;20453;-41
2022/07/02 09:49:26;;;;;;;3.58;1.10;;;;;;;30.25;29.11;102130.28;5203551;28;20422;-37
2022/07/02 09:52:02;;;;;;;1.88;0.85;;;;;;;30.29;28.84;102124.13;5205988;28;20873;-39
2022/07/02 09:54:34;;;;;;;3.95;0.80;;;;;;;30.35;28.77;102132.34;5201040;28;20940;-41
2022/07/02 09:57:10;;;;;;;3.35;0.50;;;;;;;30.09;28.69;102112.88;5187682;28;20405;-38
2022/07/02 09:59:43;;;;;;;2.97;0.60;;;;;;;30.10;28.89;102136.31;5195985;28;20884;-41
2022/07/02 10:02:28;;;;;;;2.20;0.50;;;;;;;30.08;28.88;102135.75;5200078;28;20510;-39
2022/07/02 10:05:07;;;;;;;3.58;0.90;;;;;;;30.19;28.62;102129.38;5194259;28;20905;-38
2022/07/02 10:07:40;;;;;;;3.83;0.80;;;;;;;30.16;28.62;102123.59;5181755;28;20980;-39
2022/07/02 10:10:14;;;;;;;1.65;0.65;;;;;;;29.93;29.09;102135.53;5180674;28;20596;-38
2022/07/02 10:12:47;;;;;;;2.58;0.68;;;;;;;29.42;29.57;102109.06;5195027;28;20417;-39
2022/07/02 10:15:23;;;;;;;1.75;0.52;;;;;;;29.35;29.20;102138.31;5189592;28;20413;-41
2022/07/02 10:17:57;;;;;;;3.67;0.60;;;;;;;29.18;29.33;102123.84;5197621;28;20464;-38
2022/07/02 10:20:32;;;;;;;2.45;0.60;;;;;;;29.09;29.74;102130.75;5196269;28;20413;-37
2022/07/02 10:23:06;;;;;;;2.28;0.75;;;;;;;29.09;29.35;102111.72;5196601;28;20953;-37
2022/07/02 10:25:39;;;;;;;1.70;0.60;;;;;;;29.29;29.13;102131.13;5193755;28;20911;-39
2022/07/02 10:28:12;;;;;;;3.22;0.70;;;;;;;29.06;29.30;102112.19;5195026;28;20461;-43
2022/07/02 10:30:45;;;;;;;4.43;0.88;;;;;;;29.18;29.11;102129.28;5194364;28;20440;-39
2022/07/02 10:33:33;;;;;;;3.47;0.77;;;;;;;28.91;29.10;102091.75;5184300;28;20876;-39
2022/07/02 10:36:12;;;;;;;2.67;0.65;;;;;;;29.13;28.99;102126.47;5193393;28;20433;-38
2022/07/02 10:38:59;;;;;;;6.13;1.00;;;;;;;29.15;28.88;102127.06;5190832;28;20601;-40
2022/07/02 10:41:33;;;;;;;3.35;0.80;;;;;;;29.13;28.99;102121.03;5195849;28;20427;-39
2022/07/02 10:44:06;;;;;;;2.05;0.47;;;;;;;29.01;29.17;102117.50;5199155;28;20416;-42
2022/07/02 10:46:39;;;;;;;2.47;0.68;;;;;;;28.91;29.10;102082.78;5188320;28;20803;-38
2022/07/02 10:49:12;;;;;;;2.33;0.80;;;;;;;29.14;28.91;102114.50;5184914;28;20433;-41
2022/07/02 10:51:46;;;;;;;3.25;0.52;;;;;;;29.13;28.90;102108.25;5161531;28;20431;-38
2022/07/02 10:54:18;;;;;;;2.85;0.70;;;;;;;28.96;28.88;102091.03;5185341;28;20817;-40
2022/07/02 10:56:54;;;;;;;1.90;0.40;;;;;;;29.01;28.86;102087.59;5190863;28;20437;-43
2022/07/02 10:59:29;;;;;;;2.00;0.50;;;;;;;29.18;28.70;102093.94;5197874;28;20429;-39
2022/07/02 11:02:03;;;;;;;2.15;0.55;;;;;;;29.16;28.58;102077.84;5197096;28;20421;-39
2022/07/02 11:04:39;;;;;;;3.35;0.77;;;;;;;29.34;28.58;102106.72;5192501;28;24613;-40
2022/07/02 11:07:14;;;;;;;2.30;0.80;;;;;;;29.41;28.47;102107.41;5197246;28;20418;-40
2022/07/02 11:09:55;;;;;;;1.80;0.45;;;;;;;29.36;28.64;102098.31;5198379;28;20424;-41
2022/07/02 11:12:45;;;;;;;2.78;0.68;;;;;;;29.46;28.29;102097.69;5198030;28;20495;-39
2022/07/02 11:15:19;;;;;;;4.15;0.80;;;;;;;29.61;27.98;102087.09;5193046;28;20429;-39
2022/07/02 11:17:54;;;;;;;2.67;0.50;;;;;;;29.85;27.86;102093.16;5191724;28;20456;-39
2022/07/02 11:20:27;;;;;;;1.50;0.70;;;;;;;29.84;27.60;102095.06;5193591;28;20440;-40
2022/07/02 11:23:01;;;;;;;2.75;0.60;;;;;;;29.85;27.77;102095.88;5193794;28;20417;-38
2022/07/02 11:25:34;;;;;;;1.50;0.50;;;;;;;29.79;27.65;102083.25;5194389;28;20421;-40
2022/07/02 11:28:07;;;;;;;1.98;0.73;;;;;;;29.57;27.57;102073.09;5189449;28;20510;-40
2022/07/02 11:30:40;;;;;;;3.15;0.90;;;;;;;29.58;27.59;102096.53;5182523;28;20456;-40
2022/07/02 11:33:16;;;;;;;1.38;0.40;;;;;;;29.45;27.71;102090.56;5194144;28;21000;-41
2022/07/02 11:35:52;;;;;;;4.27;1.13;;;;;;;29.33;27.63;102091.50;5194591;28;20429;-40
2022/07/02 11:38:26;;;;;;;3.53;0.47;;;;;;;29.41;27.48;102084.81;5199043;28;20422;-40
2022/07/02 11:40:59;;;;;;;2.38;0.75;;;;;;;29.49;27.53;102086.31;5198105;28;20849;-40
2022/07/02 11:43:32;;;;;;;1.73;0.57;;;;;;;29.34;27.74;102087.69;5197399;28;20469;-39
2022/07/02 11:46:05;;;;;;;2.90;1.00;;;;;;;29.02;28.15;102081.94;5197467;28;20437;-40
2022/07/02 11:48:38;;;;;;;4.28;0.60;;;;;;;28.66;28.19;102045.88;5193235;28;20423;-40
2022/07/02 11:51:11;;;;;;;2.28;0.80;;;;;;;28.65;28.25;102078.75;5195537;28;20425;-39
2022/07/02 11:53:54;;;;;;;2.95;0.68;;;;;;;28.65;28.08;102087.72;5196518;28;20935;-40
2022/07/02 11:56:28;;;;;;;4.75;0.77;;;;;;;28.59;28.18;102066.09;5198298;28;20937;-39
2022/07/02 11:59:00;;;;;;;1.77;0.70;;;;;;;28.81;27.94;102067.09;5197878;28;20493;-40
2022/07/02 12:01:35;;;;;;;3.75;0.60;;;;;;;28.74;27.79;102041.94;5195322;28;20431;-39